AOJ1 LOWW-ESSB
Flight info
| Callsign | AOJ1 |
|---|---|
| Flight time | 1h 49m |
| Altitude | 39000 |
| Route | LEDVA DCT KATQA DCT VAGON DCT XIDNA DCT BEZMI DCT PENOR DCT ARMOD M607 INWIQ |
| Aircraft | CL60/M-SBDE1E2E3FGHIJ1J4J5J7M3RWXYZ/LB1V1D1 |
Departure
| Time | 2026-04-25 13:05 |
|---|---|
| Airport | Vienna International Airport (LOWW) |
Arrival
| Time | 2026-04-25 14:55 |
|---|---|
| Airport | Stockholm-Bromma Airport (ESSB) |
| Time | Latitude | Longitude | Altitude | Speed | Heading |
|---|---|---|---|---|---|
| 2026-04-25 12:30 | 48.12688 | 16.53730 | 580 ft | 0 kts | 296° |
| 2026-04-25 12:57 | 48.12688 | 16.53729 | 580 ft | 0 kts | 296° |
| 2026-04-25 12:58 | 48.12696 | 16.53706 | 580 ft | 4 kts | 293° |
| 2026-04-25 12:58 | 48.12698 | 16.53696 | 580 ft | 0 kts | 278° |
| 2026-04-25 12:58 | 48.12689 | 16.53672 | 580 ft | 4 kts | 213° |
| 2026-04-25 12:58 | 48.12660 | 16.53655 | 580 ft | 5 kts | 191° |
| 2026-04-25 12:59 | 48.12637 | 16.53667 | 580 ft | 1 kts | 122° |
| 2026-04-25 12:59 | 48.12612 | 16.53698 | 580 ft | 6 kts | 180° |
| 2026-04-25 12:59 | 48.12564 | 16.53667 | 581 ft | 8 kts | 207° |
| 2026-04-25 12:59 | 48.12534 | 16.53644 | 581 ft | 0 kts | 207° |
| 2026-04-25 13:00 | 48.12533 | 16.53643 | 581 ft | 1 kts | 207° |
| 2026-04-25 13:00 | 48.12528 | 16.53639 | 581 ft | 3 kts | 206° |
| 2026-04-25 13:00 | 48.12451 | 16.53635 | 581 ft | 9 kts | 186° |
| 2026-04-25 13:00 | 48.12394 | 16.53643 | 581 ft | 9 kts | 135° |
| 2026-04-25 13:01 | 48.12360 | 16.53742 | 582 ft | 12 kts | 114° |
| 2026-04-25 13:01 | 48.12319 | 16.53866 | 583 ft | 14 kts | 116° |
| 2026-04-25 13:01 | 48.12273 | 16.54010 | 583 ft | 16 kts | 116° |
| 2026-04-25 13:01 | 48.12218 | 16.54175 | 584 ft | 18 kts | 117° |
| 2026-04-25 13:02 | 48.12178 | 16.54296 | 585 ft | 20 kts | 116° |
| 2026-04-25 13:02 | 48.12107 | 16.54509 | 586 ft | 7 kts | 115° |
| 2026-04-25 13:02 | 48.12084 | 16.54588 | 586 ft | 7 kts | 115° |
| 2026-04-25 13:02 | 48.12064 | 16.54649 | 586 ft | 7 kts | 116° |
| 2026-04-25 13:03 | 48.12035 | 16.54738 | 587 ft | 11 kts | 116° |
| 2026-04-25 13:03 | 48.11998 | 16.54855 | 588 ft | 13 kts | 116° |
| 2026-04-25 13:03 | 48.11950 | 16.54998 | 588 ft | 17 kts | 117° |
| 2026-04-25 13:03 | 48.11913 | 16.55109 | 588 ft | 5 kts | 124° |
| 2026-04-25 13:04 | 48.11871 | 16.55141 | 589 ft | 7 kts | 188° |
| 2026-04-25 13:04 | 48.11830 | 16.55101 | 589 ft | 7 kts | 234° |
| 2026-04-25 13:04 | 48.11809 | 16.55022 | 589 ft | 8 kts | 253° |
| 2026-04-25 13:04 | 48.11797 | 16.54925 | 589 ft | 10 kts | 266° |
| 2026-04-25 13:05 | 48.11805 | 16.54817 | 589 ft | 11 kts | 284° |
| 2026-04-25 13:05 | 48.11908 | 16.54486 | 587 ft | 74 kts | 296° |
| 2026-04-25 13:05 | 48.12264 | 16.53377 | 696 ft | 150 kts | 294° |
| 2026-04-25 13:05 | 48.12753 | 16.51861 | 1412 ft | 180 kts | 291° |
| 2026-04-25 13:06 | 48.12872 | 16.49902 | 2130 ft | 198 kts | 257° |
| 2026-04-25 13:06 | 48.12324 | 16.48052 | 2990 ft | 199 kts | 248° |
| 2026-04-25 13:06 | 48.11771 | 16.46221 | 3735 ft | 200 kts | 262° |
| 2026-04-25 13:06 | 48.11819 | 16.44195 | 4497 ft | 198 kts | 283° |
| 2026-04-25 13:07 | 48.12068 | 16.42151 | 5269 ft | 200 kts | 282° |
| 2026-04-25 13:07 | 48.12306 | 16.40070 | 6020 ft | 219 kts | 282° |
| 2026-04-25 13:07 | 48.12574 | 16.37694 | 6770 ft | 249 kts | 282° |
| 2026-04-25 13:07 | 48.12865 | 16.35051 | 7523 ft | 262 kts | 281° |
| 2026-04-25 13:08 | 48.13154 | 16.32378 | 8270 ft | 266 kts | 281° |
| 2026-04-25 13:08 | 48.13455 | 16.29568 | 9053 ft | 270 kts | 281° |
| 2026-04-25 13:08 | 48.13753 | 16.26771 | 9809 ft | 273 kts | 281° |
| 2026-04-25 13:08 | 48.14057 | 16.23983 | 10513 ft | 278 kts | 283° |
| 2026-04-25 13:09 | 48.14781 | 16.21312 | 11040 ft | 280 kts | 304° |
| 2026-04-25 13:09 | 48.16192 | 16.19329 | 11549 ft | 281 kts | 327° |
| 2026-04-25 13:09 | 48.17949 | 16.17988 | 12053 ft | 289 kts | 332° |
| 2026-04-25 13:09 | 48.19852 | 16.16599 | 12550 ft | 321 kts | 333° |
| 2026-04-25 13:10 | 48.22043 | 16.15616 | 13029 ft | 345 kts | 350° |
| 2026-04-25 13:10 | 48.24478 | 16.15865 | 13559 ft | 360 kts | 12° |
| 2026-04-25 13:10 | 48.26711 | 16.17634 | 14056 ft | 372 kts | 34° |
| 2026-04-25 13:10 | 48.28696 | 16.20207 | 14530 ft | 375 kts | 38° |
| 2026-04-25 13:11 | 48.30651 | 16.22775 | 15028 ft | 376 kts | 37° |
| 2026-04-25 13:11 | 48.32620 | 16.25355 | 15520 ft | 378 kts | 37° |
| 2026-04-25 13:11 | 48.34627 | 16.27989 | 16036 ft | 382 kts | 37° |
| 2026-04-25 13:11 | 48.36618 | 16.30605 | 16529 ft | 386 kts | 37° |
| 2026-04-25 13:12 | 48.38649 | 16.33276 | 17026 ft | 389 kts | 37° |
| 2026-04-25 13:12 | 48.40694 | 16.35970 | 17537 ft | 392 kts | 37° |
| 2026-04-25 13:12 | 48.42757 | 16.38691 | 18038 ft | 396 kts | 37° |
| 2026-04-25 13:12 | 48.43430 | 16.39578 | 18200 ft | 397 kts | 37° |
| 2026-04-25 13:13 | 48.46925 | 16.44196 | 19054 ft | 403 kts | 37° |
| 2026-04-25 13:13 | 48.49027 | 16.46978 | 19561 ft | 407 kts | 37° |
| 2026-04-25 13:13 | 48.51165 | 16.49810 | 20069 ft | 411 kts | 36° |
| 2026-04-25 13:13 | 48.53319 | 16.52668 | 20558 ft | 414 kts | 36° |
| 2026-04-25 13:14 | 48.55480 | 16.55538 | 21069 ft | 417 kts | 36° |
| 2026-04-25 13:14 | 48.57683 | 16.58467 | 21578 ft | 421 kts | 36° |
| 2026-04-25 13:14 | 48.59880 | 16.61392 | 22085 ft | 425 kts | 36° |
| 2026-04-25 13:14 | 48.62106 | 16.64358 | 22588 ft | 429 kts | 36° |
| 2026-04-25 13:15 | 48.64376 | 16.67388 | 23103 ft | 432 kts | 36° |
| 2026-04-25 13:15 | 48.66632 | 16.70403 | 23608 ft | 437 kts | 36° |
| 2026-04-25 13:15 | 48.68926 | 16.73472 | 24119 ft | 441 kts | 36° |
| 2026-04-25 13:15 | 48.71236 | 16.76567 | 24626 ft | 445 kts | 36° |
| 2026-04-25 13:16 | 48.73535 | 16.79801 | 25139 ft | 452 kts | 40° |
| 2026-04-25 13:16 | 48.75751 | 16.83207 | 25640 ft | 456 kts | 40° |
| 2026-04-25 13:16 | 48.77978 | 16.86642 | 26142 ft | 459 kts | 40° |
| 2026-04-25 13:16 | 48.80231 | 16.90120 | 26654 ft | 463 kts | 40° |
| 2026-04-25 13:17 | 48.82498 | 16.93626 | 27154 ft | 467 kts | 40° |
| 2026-04-25 13:17 | 48.84781 | 16.97161 | 27657 ft | 471 kts | 40° |
| 2026-04-25 13:17 | 48.87090 | 17.00743 | 28160 ft | 475 kts | 40° |
| 2026-04-25 13:17 | 48.89398 | 17.04327 | 28662 ft | 479 kts | 40° |
| 2026-04-25 13:18 | 48.91739 | 17.07970 | 29167 ft | 481 kts | 40° |
| 2026-04-25 13:18 | 48.94069 | 17.11602 | 29665 ft | 483 kts | 40° |
| 2026-04-25 13:18 | 48.96428 | 17.15285 | 30173 ft | 485 kts | 40° |
| 2026-04-25 13:18 | 48.98813 | 17.18856 | 30674 ft | 481 kts | 34° |
| 2026-04-25 13:19 | 49.01556 | 17.21660 | 31075 ft | 471 kts | 20° |
| 2026-04-25 13:19 | 49.04613 | 17.23358 | 31217 ft | 463 kts | 5° |
| 2026-04-25 13:19 | 49.07783 | 17.23870 | 31354 ft | 457 kts | 353° |
| 2026-04-25 13:19 | 49.08828 | 17.23841 | 31409 ft | 457 kts | 351° |
| 2026-04-25 13:20 | 49.14268 | 17.23535 | 32062 ft | 455 kts | 351° |
| 2026-04-25 13:20 | 49.17454 | 17.23369 | 32859 ft | 445 kts | 351° |
| 2026-04-25 13:20 | 49.20477 | 17.23210 | 33616 ft | 437 kts | 351° |
| 2026-04-25 13:20 | 49.23497 | 17.23050 | 34304 ft | 430 kts | 351° |
| 2026-04-25 13:21 | 49.26452 | 17.22891 | 34822 ft | 427 kts | 351° |
| 2026-04-25 13:21 | 49.29445 | 17.22728 | 35217 ft | 426 kts | 351° |
| 2026-04-25 13:21 | 49.32405 | 17.22567 | 35579 ft | 426 kts | 351° |
| 2026-04-25 13:21 | 49.35368 | 17.22404 | 35863 ft | 427 kts | 351° |
| 2026-04-25 13:22 | 49.38329 | 17.22242 | 36163 ft | 427 kts | 351° |
| 2026-04-25 13:22 | 49.40484 | 17.22125 | 36389 ft | 427 kts | 351° |
| 2026-04-25 13:22 | 49.43438 | 17.21964 | 36744 ft | 426 kts | 351° |
| 2026-04-25 13:23 | 49.49356 | 17.21643 | 37596 ft | 423 kts | 351° |
| 2026-04-25 13:23 | 49.52311 | 17.21482 | 37989 ft | 421 kts | 351° |
| 2026-04-25 13:23 | 49.55211 | 17.21324 | 38342 ft | 421 kts | 351° |
| 2026-04-25 13:23 | 49.58136 | 17.21164 | 38661 ft | 420 kts | 351° |
| 2026-04-25 13:24 | 49.61036 | 17.21005 | 38937 ft | 420 kts | 351° |
| 2026-04-25 13:24 | 49.63956 | 17.20845 | 39216 ft | 420 kts | 351° |
| 2026-04-25 13:24 | 49.66902 | 17.20684 | 39486 ft | 419 kts | 351° |
| 2026-04-25 13:24 | 49.69778 | 17.20525 | 39671 ft | 419 kts | 351° |
| 2026-04-25 13:25 | 49.72705 | 17.20364 | 39848 ft | 420 kts | 351° |
| 2026-04-25 13:25 | 49.75618 | 17.20204 | 40063 ft | 419 kts | 351° |
| 2026-04-25 13:25 | 49.78547 | 17.20043 | 40236 ft | 419 kts | 352° |
| 2026-04-25 13:25 | 49.81457 | 17.19883 | 40370 ft | 418 kts | 352° |
| 2026-04-25 13:26 | 49.84352 | 17.19724 | 40540 ft | 417 kts | 352° |
| 2026-04-25 13:26 | 49.87236 | 17.19565 | 40657 ft | 417 kts | 352° |
| 2026-04-25 13:26 | 49.90157 | 17.19403 | 40743 ft | 418 kts | 352° |
| 2026-04-25 13:27 | 49.95966 | 17.19082 | 40948 ft | 418 kts | 352° |
| 2026-04-25 13:27 | 50.01849 | 17.18754 | 40949 ft | 421 kts | 352° |
| 2026-04-25 13:28 | 50.07755 | 17.18424 | 40960 ft | 425 kts | 352° |
| 2026-04-25 13:28 | 50.13761 | 17.18088 | 40951 ft | 429 kts | 352° |
| 2026-04-25 13:29 | 50.19798 | 17.17751 | 40950 ft | 432 kts | 352° |
| 2026-04-25 13:29 | 50.25776 | 17.17418 | 40957 ft | 432 kts | 352° |
| 2026-04-25 13:30 | 50.34812 | 17.16913 | 40954 ft | 432 kts | 352° |
| 2026-04-25 13:31 | 50.42786 | 17.16464 | 40952 ft | 432 kts | 352° |
| 2026-04-25 13:31 | 50.48782 | 17.16126 | 40949 ft | 432 kts | 352° |
| 2026-04-25 13:32 | 50.54795 | 17.15787 | 40955 ft | 432 kts | 352° |
| 2026-04-25 13:32 | 50.60837 | 17.15444 | 40947 ft | 433 kts | 352° |
| 2026-04-25 13:33 | 50.66837 | 17.15103 | 40937 ft | 433 kts | 352° |
| 2026-04-25 13:33 | 50.72843 | 17.14761 | 40932 ft | 433 kts | 352° |
| 2026-04-25 13:34 | 50.78875 | 17.14416 | 40928 ft | 434 kts | 353° |
| 2026-04-25 13:34 | 50.84930 | 17.14070 | 40933 ft | 434 kts | 353° |
| 2026-04-25 13:35 | 50.90983 | 17.13722 | 40930 ft | 434 kts | 352° |
| 2026-04-25 13:35 | 50.97034 | 17.13374 | 40930 ft | 435 kts | 352° |
| 2026-04-25 13:36 | 51.03098 | 17.13024 | 40935 ft | 436 kts | 353° |
| 2026-04-25 13:36 | 51.09160 | 17.12673 | 40937 ft | 436 kts | 352° |
| 2026-04-25 13:37 | 51.15313 | 17.12316 | 40926 ft | 435 kts | 353° |
| 2026-04-25 13:37 | 51.21426 | 17.11961 | 40916 ft | 435 kts | 353° |
| 2026-04-25 13:38 | 51.27469 | 17.11609 | 40923 ft | 434 kts | 352° |
| 2026-04-25 13:38 | 51.33288 | 17.10752 | 40915 ft | 429 kts | 345° |
| 2026-04-25 13:39 | 51.39315 | 17.08945 | 40919 ft | 429 kts | 345° |
| 2026-04-25 13:39 | 51.45177 | 17.07194 | 40903 ft | 429 kts | 344° |
| 2026-04-25 13:40 | 51.51015 | 17.05448 | 40900 ft | 430 kts | 345° |
| 2026-04-25 13:40 | 51.56877 | 17.03692 | 40908 ft | 429 kts | 345° |
| 2026-04-25 13:41 | 51.62739 | 17.01932 | 40899 ft | 429 kts | 345° |
| 2026-04-25 13:41 | 51.68616 | 17.00252 | 40894 ft | 431 kts | 348° |
| 2026-04-25 13:41 | 51.72667 | 17.00123 | 40898 ft | 438 kts | 359° |
| 2026-04-25 13:42 | 51.74674 | 17.00394 | 40898 ft | 439 kts | 360° |
| 2026-04-25 13:42 | 51.80764 | 17.01267 | 40899 ft | 439 kts | 360° |
| 2026-04-25 13:43 | 51.86856 | 17.02138 | 40888 ft | 439 kts | 360° |
| 2026-04-25 13:43 | 51.92930 | 17.03011 | 40887 ft | 439 kts | 360° |
| 2026-04-25 13:44 | 51.99014 | 17.03888 | 40883 ft | 440 kts | 359° |
| 2026-04-25 13:44 | 52.05108 | 17.04771 | 40901 ft | 439 kts | 360° |
| 2026-04-25 13:45 | 52.11234 | 17.05660 | 40872 ft | 440 kts | 359° |
| 2026-04-25 13:45 | 52.18536 | 17.06725 | 40884 ft | 440 kts | 359° |
| 2026-04-25 13:46 | 52.24506 | 17.07599 | 40881 ft | 440 kts | 359° |
| 2026-04-25 13:46 | 52.30599 | 17.08493 | 40880 ft | 439 kts | 359° |
| 2026-04-25 13:47 | 52.36676 | 17.09388 | 40883 ft | 440 kts | 359° |
| 2026-04-25 13:47 | 52.42811 | 17.10294 | 40871 ft | 440 kts | 359° |
| 2026-04-25 13:48 | 52.48922 | 17.11198 | 40855 ft | 440 kts | 359° |
| 2026-04-25 13:48 | 52.54028 | 17.11957 | 40860 ft | 440 kts | 359° |
| 2026-04-25 13:49 | 52.60098 | 17.12862 | 40824 ft | 440 kts | 359° |
| 2026-04-25 13:49 | 52.67211 | 17.13922 | 40857 ft | 440 kts | 359° |
| 2026-04-25 13:50 | 52.73349 | 17.14841 | 40852 ft | 440 kts | 359° |
| 2026-04-25 13:50 | 52.79407 | 17.15750 | 40841 ft | 440 kts | 359° |
| 2026-04-25 13:51 | 52.85474 | 17.16664 | 40830 ft | 440 kts | 359° |
| 2026-04-25 13:51 | 52.91625 | 17.17593 | 40821 ft | 440 kts | 359° |
| 2026-04-25 13:52 | 52.97716 | 17.18516 | 40816 ft | 440 kts | 359° |
| 2026-04-25 13:52 | 53.03802 | 17.19440 | 40825 ft | 440 kts | 359° |
| 2026-04-25 13:53 | 53.09872 | 17.20366 | 40821 ft | 439 kts | 359° |
| 2026-04-25 13:53 | 53.16112 | 17.21319 | 40817 ft | 440 kts | 359° |
| 2026-04-25 13:54 | 53.22213 | 17.22255 | 40800 ft | 440 kts | 359° |
| 2026-04-25 13:54 | 53.28291 | 17.23189 | 40806 ft | 441 kts | 359° |
| 2026-04-25 13:55 | 53.34391 | 17.24130 | 40808 ft | 441 kts | 359° |
| 2026-04-25 13:55 | 53.40478 | 17.25071 | 40792 ft | 442 kts | 359° |
| 2026-04-25 13:56 | 53.46631 | 17.26026 | 40808 ft | 441 kts | 359° |
| 2026-04-25 13:56 | 53.52721 | 17.26974 | 40801 ft | 441 kts | 359° |
| 2026-04-25 13:57 | 53.58816 | 17.27924 | 40807 ft | 441 kts | 359° |
| 2026-04-25 13:57 | 53.64959 | 17.28885 | 40798 ft | 442 kts | 359° |
| 2026-04-25 13:58 | 53.71066 | 17.29843 | 40778 ft | 443 kts | 359° |
| 2026-04-25 13:58 | 53.77197 | 17.30808 | 40782 ft | 443 kts | 359° |
| 2026-04-25 13:59 | 53.83365 | 17.31782 | 40799 ft | 443 kts | 359° |
| 2026-04-25 13:59 | 53.89495 | 17.32753 | 40784 ft | 443 kts | 359° |
| 2026-04-25 14:00 | 53.93544 | 17.33396 | 40794 ft | 443 kts | 359° |
| 2026-04-25 14:00 | 54.01738 | 17.34700 | 40774 ft | 444 kts | 359° |
| 2026-04-25 14:01 | 54.06842 | 17.35516 | 40778 ft | 444 kts | 359° |
| 2026-04-25 14:01 | 54.13031 | 17.36507 | 40762 ft | 444 kts | 359° |
| 2026-04-25 14:02 | 54.20158 | 17.37652 | 40757 ft | 444 kts | 359° |
| 2026-04-25 14:02 | 54.26323 | 17.38646 | 40760 ft | 444 kts | 359° |
| 2026-04-25 14:03 | 54.31445 | 17.39474 | 40758 ft | 445 kts | 359° |
| 2026-04-25 14:03 | 54.37578 | 17.40429 | 40743 ft | 443 kts | 357° |
| 2026-04-25 14:04 | 54.43646 | 17.39741 | 40735 ft | 436 kts | 348° |
| 2026-04-25 14:04 | 54.49659 | 17.38588 | 40745 ft | 436 kts | 348° |
| 2026-04-25 14:05 | 54.55652 | 17.37439 | 40732 ft | 436 kts | 348° |
| 2026-04-25 14:05 | 54.61684 | 17.36281 | 40740 ft | 436 kts | 348° |
| 2026-04-25 14:06 | 54.67737 | 17.35116 | 40737 ft | 436 kts | 348° |
| 2026-04-25 14:06 | 54.73745 | 17.33956 | 40731 ft | 437 kts | 348° |
| 2026-04-25 14:07 | 54.79783 | 17.32787 | 40714 ft | 438 kts | 348° |
| 2026-04-25 14:07 | 54.86826 | 17.31421 | 40713 ft | 438 kts | 348° |
| 2026-04-25 14:08 | 54.92864 | 17.30245 | 40710 ft | 438 kts | 348° |
| 2026-04-25 14:08 | 54.98904 | 17.29066 | 40702 ft | 439 kts | 348° |
| 2026-04-25 14:09 | 55.04939 | 17.27884 | 40693 ft | 439 kts | 348° |
| 2026-04-25 14:09 | 55.10981 | 17.26697 | 40695 ft | 439 kts | 348° |
| 2026-04-25 14:10 | 55.17062 | 17.25500 | 40682 ft | 438 kts | 348° |
| 2026-04-25 14:10 | 55.23123 | 17.24302 | 40675 ft | 438 kts | 349° |
| 2026-04-25 14:11 | 55.29158 | 17.23107 | 40678 ft | 438 kts | 349° |
| 2026-04-25 14:11 | 55.35205 | 17.21905 | 40675 ft | 438 kts | 348° |
| 2026-04-25 14:12 | 55.41231 | 17.20703 | 40673 ft | 438 kts | 349° |
| 2026-04-25 14:12 | 55.47282 | 17.19493 | 40666 ft | 438 kts | 349° |
| 2026-04-25 14:13 | 55.53331 | 17.18279 | 40676 ft | 438 kts | 349° |
| 2026-04-25 14:13 | 55.58897 | 17.17159 | 40663 ft | 438 kts | 349° |
| 2026-04-25 14:14 | 55.64892 | 17.16244 | 40662 ft | 443 kts | 356° |
| 2026-04-25 14:14 | 55.71102 | 17.16808 | 40647 ft | 444 kts | 358° |
| 2026-04-25 14:15 | 55.77275 | 17.17404 | 40652 ft | 445 kts | 358° |
| 2026-04-25 14:15 | 55.83450 | 17.18001 | 40638 ft | 445 kts | 358° |
| 2026-04-25 14:16 | 55.89637 | 17.18598 | 40647 ft | 446 kts | 358° |
| 2026-04-25 14:16 | 55.95765 | 17.19190 | 40635 ft | 446 kts | 358° |
| 2026-04-25 14:17 | 56.02006 | 17.19795 | 40643 ft | 446 kts | 358° |
| 2026-04-25 14:17 | 56.08202 | 17.20395 | 40629 ft | 446 kts | 358° |
| 2026-04-25 14:18 | 56.14470 | 17.21003 | 40641 ft | 446 kts | 358° |
| 2026-04-25 14:18 | 56.20654 | 17.21605 | 40638 ft | 447 kts | 358° |
| 2026-04-25 14:19 | 56.26860 | 17.22210 | 40622 ft | 448 kts | 358° |
| 2026-04-25 14:19 | 56.33054 | 17.22817 | 40624 ft | 448 kts | 359° |
| 2026-04-25 14:20 | 56.39273 | 17.23428 | 40610 ft | 449 kts | 359° |
| 2026-04-25 14:20 | 56.45480 | 17.24039 | 40625 ft | 448 kts | 359° |
| 2026-04-25 14:21 | 56.51672 | 17.24653 | 40617 ft | 442 kts | 359° |
| 2026-04-25 14:21 | 56.57778 | 17.25259 | 40599 ft | 439 kts | 359° |
| 2026-04-25 14:22 | 56.63824 | 17.25859 | 40594 ft | 437 kts | 359° |
| 2026-04-25 14:22 | 56.69909 | 17.26465 | 40601 ft | 438 kts | 359° |
| 2026-04-25 14:23 | 56.75962 | 17.27069 | 40606 ft | 439 kts | 359° |
| 2026-04-25 14:23 | 56.82026 | 17.27676 | 40604 ft | 440 kts | 359° |
| 2026-04-25 14:24 | 56.88142 | 17.28291 | 40591 ft | 441 kts | 359° |
| 2026-04-25 14:24 | 56.94261 | 17.28908 | 40596 ft | 441 kts | 359° |
| 2026-04-25 14:25 | 57.00347 | 17.29524 | 40603 ft | 440 kts | 359° |
| 2026-04-25 14:25 | 57.03419 | 17.29834 | 40352 ft | 446 kts | 359° |
| 2026-04-25 14:25 | 57.06502 | 17.30145 | 39829 ft | 450 kts | 359° |
| 2026-04-25 14:25 | 57.07528 | 17.30249 | 39655 ft | 449 kts | 359° |
| 2026-04-25 14:26 | 57.12727 | 17.30781 | 38745 ft | 445 kts | 358° |
| 2026-04-25 14:26 | 57.15803 | 17.31095 | 38132 ft | 444 kts | 358° |
| 2026-04-25 14:26 | 57.18903 | 17.31412 | 37543 ft | 443 kts | 358° |
| 2026-04-25 14:26 | 57.21970 | 17.31725 | 36961 ft | 445 kts | 357° |
| 2026-04-25 14:27 | 57.25017 | 17.32039 | 36464 ft | 441 kts | 357° |
| 2026-04-25 14:27 | 57.28069 | 17.32353 | 35969 ft | 441 kts | 357° |
| 2026-04-25 14:27 | 57.31099 | 17.32665 | 35480 ft | 440 kts | 357° |
| 2026-04-25 14:27 | 57.34161 | 17.32981 | 34986 ft | 439 kts | 357° |
| 2026-04-25 14:28 | 57.37178 | 17.33293 | 34531 ft | 440 kts | 357° |
| 2026-04-25 14:28 | 57.40254 | 17.33610 | 34003 ft | 439 kts | 356° |
| 2026-04-25 14:28 | 57.43288 | 17.33924 | 33555 ft | 440 kts | 356° |
| 2026-04-25 14:28 | 57.46328 | 17.34239 | 33087 ft | 440 kts | 356° |
| 2026-04-25 14:29 | 57.49390 | 17.34557 | 32565 ft | 440 kts | 356° |
| 2026-04-25 14:29 | 57.52438 | 17.34876 | 32094 ft | 435 kts | 356° |
| 2026-04-25 14:29 | 57.55416 | 17.35189 | 31583 ft | 432 kts | 356° |
| 2026-04-25 14:29 | 57.58381 | 17.35502 | 31118 ft | 426 kts | 355° |
| 2026-04-25 14:30 | 57.61337 | 17.35813 | 30625 ft | 422 kts | 355° |
| 2026-04-25 14:30 | 57.67289 | 17.36424 | 29700 ft | 437 kts | 355° |
| 2026-04-25 14:30 | 57.70314 | 17.36737 | 29221 ft | 440 kts | 356° |
| 2026-04-25 14:31 | 57.73352 | 17.37056 | 28735 ft | 442 kts | 356° |
| 2026-04-25 14:31 | 57.76416 | 17.37379 | 28232 ft | 441 kts | 356° |
| 2026-04-25 14:31 | 57.79445 | 17.37701 | 27748 ft | 438 kts | 356° |
| 2026-04-25 14:31 | 57.82497 | 17.38027 | 27283 ft | 434 kts | 356° |
| 2026-04-25 14:32 | 57.85494 | 17.38346 | 26787 ft | 431 kts | 356° |
| 2026-04-25 14:32 | 57.88469 | 17.38663 | 26321 ft | 426 kts | 356° |
| 2026-04-25 14:32 | 57.90430 | 17.38873 | 26008 ft | 424 kts | 355° |
| 2026-04-25 14:32 | 57.94313 | 17.39288 | 25384 ft | 420 kts | 355° |
| 2026-04-25 14:33 | 57.97204 | 17.39597 | 24918 ft | 416 kts | 355° |
| 2026-04-25 14:33 | 58.00058 | 17.39904 | 24467 ft | 411 kts | 355° |
| 2026-04-25 14:33 | 58.02908 | 17.40209 | 24019 ft | 407 kts | 356° |
| 2026-04-25 14:33 | 58.05725 | 17.40512 | 23568 ft | 404 kts | 355° |
| 2026-04-25 14:34 | 58.07029 | 17.40650 | 23396 ft | 402 kts | 355° |
| 2026-04-25 14:34 | 58.09786 | 17.40943 | 22932 ft | 400 kts | 356° |
| 2026-04-25 14:34 | 58.12571 | 17.41245 | 22491 ft | 395 kts | 356° |
| 2026-04-25 14:34 | 58.15357 | 17.41546 | 22044 ft | 392 kts | 356° |
| 2026-04-25 14:35 | 58.18094 | 17.41841 | 21610 ft | 389 kts | 356° |
| 2026-04-25 14:35 | 58.20779 | 17.42131 | 21182 ft | 386 kts | 356° |
| 2026-04-25 14:35 | 58.23447 | 17.42420 | 20757 ft | 382 kts | 356° |
| 2026-04-25 14:35 | 58.26056 | 17.42703 | 20341 ft | 379 kts | 356° |
| 2026-04-25 14:36 | 58.28696 | 17.43137 | 19875 ft | 382 kts | 3° |
| 2026-04-25 14:36 | 58.31234 | 17.44787 | 19165 ft | 388 kts | 16° |
| 2026-04-25 14:36 | 58.33693 | 17.46816 | 18438 ft | 381 kts | 16° |
| 2026-04-25 14:36 | 58.36094 | 17.48779 | 17724 ft | 376 kts | 17° |
| 2026-04-25 14:37 | 58.38475 | 17.50727 | 17131 ft | 368 kts | 17° |
| 2026-04-25 14:37 | 58.40799 | 17.52630 | 16734 ft | 366 kts | 17° |
| 2026-04-25 14:37 | 58.43134 | 17.54540 | 16318 ft | 365 kts | 17° |
| 2026-04-25 14:37 | 58.45461 | 17.56448 | 15914 ft | 362 kts | 17° |
| 2026-04-25 14:38 | 58.47766 | 17.58339 | 15520 ft | 359 kts | 17° |
| 2026-04-25 14:38 | 58.50049 | 17.60216 | 15122 ft | 356 kts | 17° |
| 2026-04-25 14:38 | 58.52308 | 17.62074 | 14727 ft | 354 kts | 17° |
| 2026-04-25 14:38 | 58.54552 | 17.63922 | 14339 ft | 349 kts | 17° |
| 2026-04-25 14:39 | 58.56750 | 17.65741 | 13959 ft | 334 kts | 18° |
| 2026-04-25 14:39 | 58.58832 | 17.67466 | 13597 ft | 320 kts | 18° |
| 2026-04-25 14:39 | 58.60833 | 17.69125 | 13250 ft | 309 kts | 18° |
| 2026-04-25 14:39 | 58.62752 | 17.70716 | 12911 ft | 298 kts | 18° |
| 2026-04-25 14:40 | 58.64619 | 17.72264 | 12593 ft | 289 kts | 18° |
| 2026-04-25 14:40 | 58.66433 | 17.73769 | 12266 ft | 281 kts | 18° |
| 2026-04-25 14:40 | 58.68220 | 17.75252 | 11965 ft | 274 kts | 18° |
| 2026-04-25 14:40 | 58.69947 | 17.76683 | 11653 ft | 274 kts | 18° |
| 2026-04-25 14:41 | 58.71685 | 17.78125 | 11352 ft | 274 kts | 18° |
| 2026-04-25 14:41 | 58.73428 | 17.79573 | 11057 ft | 272 kts | 18° |
| 2026-04-25 14:41 | 58.75156 | 17.81011 | 10767 ft | 270 kts | 18° |
| 2026-04-25 14:41 | 58.76883 | 17.82449 | 10463 ft | 269 kts | 18° |
| 2026-04-25 14:42 | 58.78599 | 17.83881 | 10176 ft | 266 kts | 18° |
| 2026-04-25 14:42 | 58.79155 | 17.84345 | 10076 ft | 266 kts | 18° |
| 2026-04-25 14:42 | 58.81977 | 17.86703 | 9584 ft | 264 kts | 18° |
| 2026-04-25 14:42 | 58.83644 | 17.88097 | 9289 ft | 262 kts | 18° |
| 2026-04-25 14:43 | 58.85323 | 17.89504 | 8999 ft | 261 kts | 18° |
| 2026-04-25 14:43 | 58.86986 | 17.90899 | 8707 ft | 259 kts | 18° |
| 2026-04-25 14:43 | 58.88615 | 17.92267 | 8437 ft | 258 kts | 18° |
| 2026-04-25 14:43 | 58.90272 | 17.93659 | 8144 ft | 257 kts | 19° |
| 2026-04-25 14:44 | 58.91901 | 17.95030 | 7857 ft | 255 kts | 19° |
| 2026-04-25 14:44 | 58.93522 | 17.96395 | 7578 ft | 254 kts | 19° |
| 2026-04-25 14:44 | 58.95120 | 17.97742 | 7299 ft | 252 kts | 19° |
| 2026-04-25 14:44 | 58.96735 | 17.99104 | 7019 ft | 252 kts | 19° |
| 2026-04-25 14:45 | 58.98331 | 18.00453 | 6741 ft | 251 kts | 19° |
| 2026-04-25 14:45 | 58.99934 | 18.01809 | 6458 ft | 250 kts | 19° |
| 2026-04-25 14:45 | 59.01520 | 18.03152 | 6183 ft | 247 kts | 19° |
| 2026-04-25 14:45 | 59.03080 | 18.04475 | 6070 ft | 244 kts | 20° |
| 2026-04-25 14:46 | 59.04679 | 18.05831 | 5877 ft | 247 kts | 20° |
| 2026-04-25 14:46 | 59.06245 | 18.07162 | 5640 ft | 244 kts | 20° |
| 2026-04-25 14:46 | 59.07804 | 18.08487 | 5379 ft | 243 kts | 20° |
| 2026-04-25 14:46 | 59.09344 | 18.09799 | 5125 ft | 239 kts | 20° |
| 2026-04-25 14:47 | 59.10746 | 18.10995 | 4884 ft | 230 kts | 20° |
| 2026-04-25 14:47 | 59.11165 | 18.11353 | 4815 ft | 227 kts | 20° |
| 2026-04-25 14:47 | 59.13612 | 18.13443 | 4376 ft | 213 kts | 20° |
| 2026-04-25 14:47 | 59.14952 | 18.14588 | 4144 ft | 205 kts | 20° |
| 2026-04-25 14:48 | 59.16254 | 18.15702 | 3916 ft | 202 kts | 20° |
| 2026-04-25 14:48 | 59.17533 | 18.16899 | 3692 ft | 204 kts | 27° |
| 2026-04-25 14:48 | 59.18693 | 18.18455 | 3468 ft | 204 kts | 30° |
| 2026-04-25 14:48 | 59.19847 | 18.20053 | 3264 ft | 199 kts | 30° |
| 2026-04-25 14:49 | 59.20982 | 18.21620 | 3030 ft | 200 kts | 30° |
| 2026-04-25 14:49 | 59.22117 | 18.23173 | 2817 ft | 199 kts | 28° |
| 2026-04-25 14:49 | 59.23386 | 18.24037 | 2574 ft | 194 kts | 3° |
| 2026-04-25 14:49 | 59.24649 | 18.23438 | 2438 ft | 181 kts | 333° |
| 2026-04-25 14:50 | 59.25267 | 18.22388 | 2461 ft | 167 kts | 317° |
| 2026-04-25 14:50 | 59.26095 | 18.20160 | 2485 ft | 138 kts | 313° |
| 2026-04-25 14:50 | 59.26602 | 18.18760 | 2483 ft | 121 kts | 315° |
| 2026-04-25 14:50 | 59.27093 | 18.17431 | 2457 ft | 117 kts | 315° |
| 2026-04-25 14:51 | 59.27561 | 18.16132 | 2442 ft | 116 kts | 315° |
| 2026-04-25 14:51 | 59.28027 | 18.14841 | 2447 ft | 115 kts | 315° |
| 2026-04-25 14:51 | 59.28491 | 18.13552 | 2447 ft | 115 kts | 316° |
| 2026-04-25 14:51 | 59.28949 | 18.12286 | 2451 ft | 116 kts | 316° |
| 2026-04-25 14:52 | 59.29422 | 18.10983 | 2369 ft | 119 kts | 315° |
| 2026-04-25 14:52 | 59.29890 | 18.09676 | 2162 ft | 113 kts | 315° |
| 2026-04-25 14:52 | 59.30345 | 18.08412 | 1985 ft | 115 kts | 316° |
| 2026-04-25 14:52 | 59.30499 | 18.07985 | 1921 ft | 113 kts | 315° |
| 2026-04-25 14:53 | 59.31259 | 18.05878 | 1619 ft | 114 kts | 315° |
| 2026-04-25 14:53 | 59.31726 | 18.04584 | 1439 ft | 116 kts | 315° |
| 2026-04-25 14:53 | 59.32190 | 18.03295 | 1235 ft | 115 kts | 311° |
| 2026-04-25 14:53 | 59.32657 | 18.01991 | 1051 ft | 115 kts | 314° |
| 2026-04-25 14:54 | 59.33126 | 18.00693 | 860 ft | 117 kts | 311° |
| 2026-04-25 14:54 | 59.33591 | 17.99397 | 682 ft | 117 kts | 313° |
| 2026-04-25 14:54 | 59.34066 | 17.98082 | 479 ft | 119 kts | 309° |
| 2026-04-25 14:54 | 59.34530 | 17.96780 | 297 ft | 118 kts | 311° |
| 2026-04-25 14:55 | 59.34990 | 17.95378 | 95 ft | 120 kts | 309° |
| 2026-04-25 14:55 | 59.35434 | 17.94176 | 32 ft | 93 kts | 300° |
| 2026-04-25 14:55 | 59.35650 | 17.93559 | 39 ft | 13 kts | 315° |
| 2026-04-25 14:55 | 59.35729 | 17.93585 | 39 ft | 9 kts | 36° |
| 2026-04-25 14:56 | 59.35746 | 17.93611 | 38 ft | 0 kts | 36° |
| 2026-04-25 14:56 | 59.35765 | 17.93635 | 38 ft | 6 kts | 33° |
| 2026-04-25 14:57 | 59.35783 | 17.93730 | 36 ft | 8 kts | 121° |
| 2026-04-25 14:57 | 59.35737 | 17.93861 | 34 ft | 14 kts | 126° |
| 2026-04-25 14:57 | 59.35674 | 17.94042 | 32 ft | 16 kts | 124° |
| 2026-04-25 14:57 | 59.35622 | 17.94131 | 32 ft | 8 kts | 164° |
| 2026-04-25 14:58 | 59.35564 | 17.94165 | 32 ft | 4 kts | 153° |
| 2026-04-25 14:58 | 59.35533 | 17.94240 | 32 ft | 9 kts | 123° |
| 2026-04-25 14:58 | 59.35489 | 17.94368 | 32 ft | 13 kts | 124° |
| 2026-04-25 14:58 | 59.35450 | 17.94479 | 33 ft | 10 kts | 125° |
| 2026-04-25 14:59 | 59.35406 | 17.94604 | 34 ft | 11 kts | 123° |
| 2026-04-25 14:59 | 59.35362 | 17.94723 | 36 ft | 7 kts | 124° |
| 2026-04-25 14:59 | 59.35328 | 17.94823 | 38 ft | 9 kts | 123° |
| 2026-04-25 14:59 | 59.35311 | 17.94884 | 39 ft | 2 kts | 107° |
| 2026-04-25 15:00 | 59.35307 | 17.94932 | 40 ft | 4 kts | 94° |
| 2026-04-25 15:00 | 59.35303 | 17.95011 | 41 ft | 8 kts | 96° |
| 2026-04-25 15:00 | 59.35279 | 17.95120 | 43 ft | 8 kts | 124° |
| 2026-04-25 15:00 | 59.35262 | 17.95177 | 44 ft | 1 kts | 104° |
| 2026-04-25 15:01 | 59.35271 | 17.95224 | 44 ft | 6 kts | 41° |
| 2026-04-25 15:01 | 59.35294 | 17.95279 | 45 ft | 5 kts | 96° |
| 2026-04-25 15:01 | 59.35300 | 17.95315 | 45 ft | 2 kts | 43° |
| 2026-04-25 15:01 | 59.35305 | 17.95344 | 45 ft | 1 kts | 91° |
| 2026-04-25 15:02 | 59.35305 | 17.95351 | 45 ft | 0 kts | 92° |